Terminal Aerodrome Forecast
Issued by NWS

Home | Current Version | Previous Version | Text Only | Print | Product List | Glossary On
Versions: 1 2 3 4 5 6 7 8 9 10 11 12 13 14 15 16 17 18 19 20
000
FTUS46 KSGX 171700
TAFCRQ
TAF
KCRQ 171723Z 1718/1818 VRB05KT P6SM SCT025 BKN040
      TEMPO 1718/1720 BKN025
     FM172100 27009KT P6SM SCT025 SCT040
     FM180100 VRB04KT P6SM BKN035
     FM181200 VRB04KT P6SM BKN025 OVC035=

USA.gov is the U.S. government's official web portal to all federal, state and local government web resources and services.